createdAt,value
2023-02-03T00:00:35.712Z,1017.9
2023-02-03T00:05:35.819Z,1017.8
2023-02-03T00:10:36.151Z,1017.8
2023-02-03T00:15:35.481Z,1017.9
2023-02-03T00:20:35.879Z,1017.9
2023-02-03T00:25:36.063Z,1017.7
2023-02-03T00:30:35.393Z,1017.7
2023-02-03T00:35:35.423Z,1017.6
2023-02-03T00:40:35.685Z,1017.6
2023-02-03T00:45:35.957Z,1017.5
2023-02-03T00:50:35.505Z,1017.5
2023-02-03T00:55:35.587Z,1017.4
2023-02-03T01:00:35.964Z,1017.4
2023-02-03T01:05:35.523Z,1017.2
2023-02-03T01:10:35.745Z,1017.2
2023-02-03T01:15:35.191Z,1017.1
2023-02-03T01:20:36.120Z,1017.1
2023-02-03T01:25:35.284Z,1016.9
2023-02-03T01:30:35.538Z,1016.9
2023-02-03T01:35:35.556Z,1016.7
2023-02-03T01:40:35.518Z,1016.7
2023-02-03T01:45:35.549Z,1016.4
2023-02-03T01:50:36.048Z,1016.4
2023-02-03T01:55:35.207Z,1016.2
2023-02-03T02:00:35.647Z,1016.2
2023-02-03T02:05:36.067Z,1016.3
2023-02-03T02:10:36.183Z,1016.3
2023-02-03T02:15:35.682Z,1016.2
2023-02-03T02:20:35.755Z,1016.2
2023-02-03T02:25:35.859Z,1016.2
2023-02-03T02:30:35.903Z,1016.2
2023-02-03T02:35:35.493Z,1015.9
2023-02-03T02:40:36.127Z,1015.9
2023-02-03T02:45:35.833Z,1015.9
2023-02-03T02:50:35.937Z,1015.9
2023-02-03T02:55:36.139Z,1015.9
2023-02-03T03:00:35.313Z,1015.9
2023-02-03T03:05:35.627Z,1015.7
2023-02-03T03:10:35.498Z,1015.7
2023-02-03T03:15:36.043Z,1015.6
2023-02-03T03:20:35.691Z,1015.6
2023-02-03T03:25:35.927Z,1015.4
2023-02-03T03:30:36.095Z,1015.4
2023-02-03T03:35:35.834Z,1015.3
2023-02-03T03:40:36.227Z,1015.3
2023-02-03T03:45:35.771Z,1015
2023-02-03T03:50:35.757Z,1015
2023-02-03T03:55:35.460Z,1015
2023-02-03T04:00:36.199Z,1015
2023-02-03T04:05:35.448Z,1015.1
2023-02-03T04:10:35.408Z,1015.1
2023-02-03T04:15:35.592Z,1015
2023-02-03T04:20:35.755Z,1015
2023-02-03T04:25:35.871Z,1014.7
2023-02-03T04:30:35.880Z,1014.7
2023-02-03T04:35:36.060Z,1014.5
2023-02-03T04:40:36.174Z,1014.5
2023-02-03T04:45:36.424Z,1014.7
2023-02-03T04:50:35.598Z,1014.7
2023-02-03T04:55:35.594Z,1014.6
2023-02-03T05:00:35.689Z,1014.6
2023-02-03T05:05:35.685Z,1014.4
2023-02-03T05:10:35.681Z,1014.4
2023-02-03T05:15:35.574Z,1014.1
2023-02-03T05:20:35.662Z,1014.1
2023-02-03T05:25:35.727Z,1013.9
2023-02-03T05:30:35.727Z,1013.9
2023-02-03T05:35:35.682Z,1013.7
2023-02-03T05:40:35.747Z,1013.7
2023-02-03T05:45:35.770Z,1013.5
2023-02-03T05:50:38.929Z,1013.5
2023-02-03T05:55:35.991Z,1013.4
2023-02-03T06:00:35.703Z,1013.4
2023-02-03T06:05:35.676Z,1013.4
2023-02-03T06:10:36.013Z,1013.4
2023-02-03T06:15:35.939Z,1013.1
2023-02-03T06:20:36.189Z,1013.1
2023-02-03T06:25:36.202Z,1013
2023-02-03T06:30:36.448Z,1013
2023-02-03T06:35:35.494Z,1013
2023-02-03T06:40:35.646Z,1013
2023-02-03T06:45:35.707Z,1013
2023-02-03T06:50:35.902Z,1013
2023-02-03T06:55:35.843Z,1012.8
2023-02-03T07:00:35.825Z,1012.8
2023-02-03T07:05:35.783Z,1012.8
2023-02-03T07:10:35.836Z,1012.8
2023-02-03T07:15:36.121Z,1012.7
2023-02-03T07:20:36.104Z,1012.7
2023-02-03T07:25:36.263Z,1012.6
2023-02-03T07:30:35.611Z,1012.6
2023-02-03T07:35:35.567Z,1012.7
2023-02-03T07:40:35.491Z,1012.7
2023-02-03T07:45:35.541Z,1012.6
2023-02-03T07:50:35.562Z,1012.6
2023-02-03T07:55:35.483Z,1012.6
2023-02-03T08:00:35.595Z,1012.6
2023-02-03T08:05:35.983Z,1012.8
2023-02-03T08:10:35.989Z,1012.8
2023-02-03T08:15:36.026Z,1013.4
2023-02-03T08:20:35.990Z,1013.4
2023-02-03T08:25:36.136Z,1013.3
2023-02-03T08:30:35.770Z,1013.3
2023-02-03T08:35:35.694Z,1013.4
2023-02-03T08:40:36.481Z,1013.4
2023-02-03T08:45:35.702Z,1013.6
2023-02-03T08:50:35.956Z,1013.6
2023-02-03T08:55:36.036Z,1013.7
2023-02-03T09:00:35.841Z,1013.7
2023-02-03T09:06:35.184Z,1013.6
2023-02-03T09:10:35.933Z,1013.6
2023-02-03T09:15:36.068Z,1013.7
2023-02-03T09:20:36.335Z,1013.7
2023-02-03T09:25:36.547Z,1013.9
2023-02-03T09:30:36.251Z,1013.9
2023-02-03T09:35:35.783Z,1013.7
2023-02-03T09:40:36.305Z,1013.7
2023-02-03T09:45:36.052Z,1013.9
2023-02-03T09:50:36.358Z,1013.9
2023-02-03T09:55:36.499Z,1014.2
2023-02-03T10:00:36.211Z,1014.2
2023-02-03T10:05:35.768Z,1014.3
2023-02-03T10:10:35.997Z,1014.3
2023-02-03T10:15:36.088Z,1014.6
2023-02-03T10:20:36.205Z,1014.6
2023-02-03T10:25:36.301Z,1014.7
2023-02-03T10:30:35.960Z,1014.7
2023-02-03T10:35:36.071Z,1014.9
2023-02-03T10:40:36.515Z,1014.9
2023-02-03T10:45:36.387Z,1015
2023-02-03T10:50:35.673Z,1015
2023-02-03T10:55:35.804Z,1015.2
2023-02-03T11:00:35.842Z,1015.2
2023-02-03T11:05:35.844Z,1015.4
2023-02-03T11:10:36.396Z,1015.4
2023-02-03T11:15:36.528Z,1015.5
2023-02-03T11:20:35.741Z,1015.5
2023-02-03T11:25:35.916Z,1015.4
2023-02-03T11:30:36.370Z,1015.4
2023-02-03T11:35:36.373Z,1015.6
2023-02-03T11:40:36.525Z,1015.6
2023-02-03T11:45:36.534Z,1015.4
2023-02-03T11:50:35.659Z,1015.4
2023-02-03T11:55:35.715Z,1015.5
2023-02-03T12:00:36.428Z,1015.5
2023-02-03T12:05:35.811Z,1015.5
2023-02-03T12:10:35.987Z,1015.5
2023-02-03T12:15:35.985Z,1015.6
2023-02-03T12:20:36.034Z,1015.6
2023-02-03T12:25:36.061Z,1015.7
2023-02-03T12:30:36.331Z,1015.7
2023-02-03T12:35:36.417Z,1016
2023-02-03T12:40:36.487Z,1016
2023-02-03T12:45:36.711Z,1016.1
2023-02-03T12:50:35.924Z,1016.1
2023-02-03T12:55:35.932Z,1016.2
2023-02-03T13:00:36.848Z,1016.2
2023-02-03T13:05:35.835Z,1016.3
2023-02-03T13:10:36.093Z,1016.3
2023-02-03T13:15:36.097Z,1016.4
2023-02-03T13:20:36.303Z,1016.4
2023-02-03T13:25:36.382Z,1016.5
2023-02-03T13:30:36.959Z,1016.5
2023-02-03T13:35:36.148Z,1016.6
2023-02-03T13:40:36.421Z,1016.6
2023-02-03T13:45:36.552Z,1016.7
2023-02-03T13:50:36.637Z,1016.7
2023-02-03T13:55:36.653Z,1016.7
2023-02-03T14:00:36.595Z,1016.7
2023-02-03T14:05:35.676Z,1016.8
2023-02-03T14:10:35.715Z,1016.8
2023-02-03T14:15:35.749Z,1016.8
2023-02-03T14:20:36.436Z,1016.8
2023-02-03T14:25:36.508Z,1017
2023-02-03T14:30:36.800Z,1017
2023-02-03T14:35:35.837Z,1017
2023-02-03T14:40:35.855Z,1017
2023-02-03T14:45:35.846Z,1016.9
2023-02-03T14:50:35.929Z,1016.9
2023-02-03T14:55:36.205Z,1017.1
2023-02-03T15:00:36.274Z,1017.1
2023-02-03T15:05:36.479Z,1017.1
2023-02-03T15:10:36.776Z,1017.1
2023-02-03T15:15:36.705Z,1017.2
2023-02-03T15:20:36.408Z,1017.2
2023-02-03T15:25:36.823Z,1017.5
2023-02-03T15:30:36.181Z,1017.5
2023-02-03T15:35:36.438Z,1017.5
2023-02-03T15:40:36.583Z,1017.5
2023-02-03T15:45:36.377Z,1017.6
2023-02-03T15:50:35.970Z,1017.6
2023-02-03T15:55:36.252Z,1017.7
2023-02-03T16:00:36.108Z,1017.7
2023-02-03T16:05:36.139Z,1017.9
2023-02-03T16:10:35.833Z,1017.9
2023-02-03T16:15:36.154Z,1018
2023-02-03T16:20:36.357Z,1018
2023-02-03T16:25:36.535Z,1018.1
2023-02-03T16:30:36.776Z,1018.1
2023-02-03T16:35:36.682Z,1018.3
2023-02-03T16:40:36.138Z,1018.3
2023-02-03T16:45:37.327Z,1018.3
2023-02-03T16:50:39.988Z,1018.3
2023-02-03T16:55:36.249Z,1018.5
2023-02-03T17:00:36.522Z,1018.5
2023-02-03T17:05:36.656Z,1018.5
2023-02-03T17:10:36.781Z,1018.5
2023-02-03T17:15:36.724Z,1018.7
2023-02-03T17:20:36.881Z,1018.7
2023-02-03T17:25:36.086Z,1018.7
2023-02-03T17:30:36.695Z,1018.7
2023-02-03T17:35:36.833Z,1018.9
2023-02-03T17:55:36.333Z,1019.6
2023-02-03T18:00:35.808Z,1019.6
2023-02-03T18:05:35.806Z,1019.7
2023-02-03T18:10:35.850Z,1019.7
2023-02-03T18:15:35.879Z,1019.8
2023-02-03T18:20:36.004Z,1019.8
2023-02-03T18:25:36.330Z,1020
2023-02-03T18:30:36.709Z,1020
2023-02-03T18:35:35.812Z,1020.1
2023-02-03T18:40:36.754Z,1020.1
2023-02-03T18:45:36.729Z,1020.3
2023-02-03T18:50:36.813Z,1020.3
2023-02-03T18:55:36.808Z,1020.5
2023-02-03T19:00:35.896Z,1020.5
2023-02-03T19:05:35.994Z,1020.8
2023-02-03T19:10:36.220Z,1020.8
2023-02-03T19:15:36.311Z,1021.1
2023-02-03T19:20:36.473Z,1021.1
2023-02-03T19:25:36.143Z,1021.4
2023-02-03T19:30:36.295Z,1021.4
2023-02-03T19:35:36.277Z,1021.6
2023-02-03T19:40:36.413Z,1021.6
2023-02-03T19:45:36.591Z,1021.9
2023-02-03T19:50:36.556Z,1021.9
2023-02-03T19:55:36.541Z,1022.1
2023-02-03T20:00:35.930Z,1022.1
2023-02-03T20:05:36.073Z,1022.3
2023-02-03T20:10:36.396Z,1022.3
2023-02-03T20:15:36.520Z,1022.6
2023-02-03T20:20:36.642Z,1022.6
2023-02-03T20:25:36.552Z,1022.9
2023-02-03T20:30:37.186Z,1022.9
2023-02-03T20:35:36.627Z,1023.2
2023-02-03T20:40:36.604Z,1023.2
2023-02-03T20:45:36.746Z,1023.4
2023-02-03T20:50:43.067Z,1023.4
2023-02-03T20:55:36.391Z,1023.6
2023-02-03T21:00:36.572Z,1023.6
2023-02-03T21:05:36.536Z,1024.1
2023-02-03T21:10:36.936Z,1024.1
2023-02-03T21:15:36.168Z,1024.3
2023-02-03T21:20:36.378Z,1024.3
2023-02-03T21:25:36.371Z,1024.6
2023-02-03T21:30:36.303Z,1024.6
2023-02-03T21:35:36.404Z,1025
2023-02-03T21:40:36.539Z,1025
2023-02-03T21:45:36.565Z,1025.3
2023-02-03T21:50:36.841Z,1025.3
2023-02-03T21:55:36.917Z,1025.6
2023-02-03T22:00:36.185Z,1025.6
2023-02-03T22:05:36.193Z,1025.9
2023-02-03T22:10:36.347Z,1025.9
2023-02-03T22:15:36.302Z,1026.1
2023-02-03T22:20:36.439Z,1026.1
2023-02-03T22:25:36.687Z,1026.4
2023-02-03T22:30:36.780Z,1026.4
2023-02-03T22:35:36.900Z,1026.8
2023-02-03T22:40:36.058Z,1026.8
2023-02-03T22:45:36.058Z,1027.1
2023-02-03T22:50:37.169Z,1027.1
2023-02-03T22:55:36.223Z,1027.4
2023-02-03T23:00:36.308Z,1027.4
2023-02-03T23:05:36.340Z,1027.7
2023-02-03T23:10:36.547Z,1027.7
2023-02-03T23:15:36.533Z,1028
2023-02-03T23:20:36.903Z,1028
2023-02-03T23:25:36.037Z,1028.2
2023-02-03T23:30:36.717Z,1028.2
2023-02-03T23:35:36.676Z,1028.4
2023-02-03T23:40:36.782Z,1028.4
2023-02-03T23:45:36.884Z,1028.5
2023-02-03T23:55:36.780Z,1028.7
